createdAt,value
2019-03-26T00:02:21.501Z,10.53
2019-03-26T00:04:52.308Z,10.13
2019-03-26T00:07:23.272Z,10.63
2019-03-26T00:09:53.950Z,10.13
2019-03-26T00:12:24.628Z,10.67
2019-03-26T00:14:55.398Z,10.90
2019-03-26T00:17:26.506Z,11.53
2019-03-26T00:19:57.188Z,10.57
2019-03-26T00:22:27.906Z,11.33
2019-03-26T00:24:58.845Z,11.50
2019-03-26T00:27:29.525Z,12.03
2019-03-26T00:30:00.379Z,11.50
2019-03-26T00:32:31.561Z,11.77
2019-03-26T00:35:02.240Z,12.03
2019-03-26T00:37:32.918Z,12.20
2019-03-26T00:40:04.287Z,11.57
2019-03-26T00:42:34.977Z,11.20
2019-03-26T00:45:07.375Z,11.53
2019-03-26T00:47:38.740Z,12.17
2019-03-26T00:50:10.709Z,12.67
2019-03-26T00:52:41.667Z,11.90
2019-03-26T00:55:21.946Z,12.67
2019-03-26T00:57:44.812Z,11.67
2019-03-26T01:00:17.150Z,11.70
2019-03-26T01:02:47.843Z,11.67
2019-03-26T01:05:18.802Z,11.07
2019-03-26T01:07:49.549Z,11.50
2019-03-26T01:10:28.237Z,11.40
2019-03-26T01:12:58.945Z,10.93
2019-03-26T01:15:30.892Z,11.47
2019-03-26T01:18:02.003Z,10.77
2019-03-26T01:20:32.961Z,10.47
2019-03-26T01:23:03.955Z,11.27
2019-03-26T01:25:34.625Z,10.83
2019-03-26T01:28:05.498Z,11.47
2019-03-26T01:30:36.163Z,10.57
2019-03-26T01:33:07.113Z,9.53
2019-03-26T01:35:37.914Z,9.93
2019-03-26T01:38:08.675Z,9.83
2019-03-26T01:40:39.344Z,9.80
2019-03-26T01:43:10.279Z,9.53
2019-03-26T01:45:41.016Z,10.27
2019-03-26T01:48:11.845Z,9.37
2019-03-26T01:50:42.894Z,9.63
2019-03-26T01:53:13.623Z,8.80
2019-03-26T01:55:44.350Z,9.43
2019-03-26T01:58:15.035Z,9.50
2019-03-26T02:00:46.011Z,8.97
2019-03-26T02:03:16.789Z,8.90
2019-03-26T02:05:47.767Z,9.13
2019-03-26T02:08:18.536Z,8.63
2019-03-26T02:10:49.475Z,8.20
2019-03-26T02:13:20.512Z,9.20
2019-03-26T02:15:51.523Z,9.20
2019-03-26T02:18:22.286Z,9.77
2019-03-26T02:20:53.845Z,10.20
2019-03-26T02:23:25.302Z,9.27
2019-03-26T02:25:57.067Z,9.90
2019-03-26T02:28:28.261Z,9.97
2019-03-26T02:30:59.072Z,10.00
2019-03-26T02:33:29.760Z,10.17
2019-03-26T02:36:00.438Z,10.43
2019-03-26T02:38:31.139Z,10.67
2019-03-26T02:41:01.814Z,9.73
2019-03-26T02:43:32.876Z,10.27
2019-03-26T02:46:03.955Z,9.97
2019-03-26T02:48:34.644Z,9.97
2019-03-26T02:51:05.381Z,11.07
2019-03-26T02:53:36.058Z,11.33
2019-03-26T02:56:06.740Z,11.57
2019-03-26T02:58:37.524Z,11.13
2019-03-26T03:01:08.486Z,12.10
2019-03-26T03:03:39.440Z,11.47
2019-03-26T03:06:10.691Z,13.20
2019-03-26T03:08:41.444Z,12.40
2019-03-26T03:11:12.114Z,13.00
2019-03-26T03:13:42.990Z,12.93
2019-03-26T03:16:13.658Z,13.73
2019-03-26T03:18:44.409Z,14.67
2019-03-26T03:21:15.090Z,14.40
2019-03-26T03:23:46.118Z,14.30
2019-03-26T03:26:16.799Z,12.97
2019-03-26T03:28:47.705Z,13.63
2019-03-26T03:31:18.507Z,13.37
2019-03-26T03:33:49.164Z,13.37
2019-03-26T03:36:20.207Z,12.83
2019-03-26T03:38:50.869Z,12.20
2019-03-26T03:41:21.611Z,12.07
2019-03-26T03:43:52.591Z,12.63
2019-03-26T03:46:24.607Z,12.40
2019-03-26T03:48:56.098Z,11.80
2019-03-26T03:51:30.523Z,11.90
2019-03-26T03:54:01.718Z,11.20
2019-03-26T03:56:35.186Z,11.17
2019-03-26T03:59:09.923Z,11.07
2019-03-26T04:01:40.600Z,11.23
2019-03-26T04:04:11.282Z,10.63
2019-03-26T04:06:42.055Z,11.87
2019-03-26T04:09:12.717Z,11.97
2019-03-26T04:11:43.424Z,10.90
2019-03-26T04:14:14.101Z,12.00
2019-03-26T04:16:44.833Z,11.67
2019-03-26T04:19:15.854Z,11.77
2019-03-26T04:21:46.837Z,12.30
2019-03-26T04:24:17.557Z,12.17
2019-03-26T04:26:48.262Z,12.13
2019-03-26T04:29:25.741Z,12.40
2019-03-26T04:31:56.754Z,12.20
2019-03-26T04:34:28.441Z,11.73
2019-03-26T04:36:59.093Z,12.23
2019-03-26T04:39:29.791Z,11.73
2019-03-26T04:42:00.720Z,12.40
2019-03-26T04:44:31.435Z,12.30
2019-03-26T04:47:02.395Z,12.53
2019-03-26T04:49:33.076Z,12.13
2019-03-26T04:52:04.063Z,12.63
2019-03-26T04:54:34.999Z,12.03
2019-03-26T04:57:05.693Z,11.90
2019-03-26T04:59:36.354Z,12.30
2019-03-26T05:02:07.028Z,13.10
2019-03-26T05:04:37.695Z,11.93
2019-03-26T05:07:08.659Z,12.00
2019-03-26T05:09:39.331Z,11.77
2019-03-26T05:12:10.001Z,12.37
2019-03-26T05:14:40.659Z,11.60
2019-03-26T05:17:11.711Z,11.97
2019-03-26T05:19:42.376Z,12.57
2019-03-26T05:22:23.617Z,11.87
2019-03-26T05:24:45.656Z,11.73
2019-03-26T05:27:16.401Z,12.03
2019-03-26T05:29:47.076Z,11.80
2019-03-26T05:32:18.070Z,11.90
2019-03-26T05:34:48.856Z,12.23
2019-03-26T05:37:20.674Z,12.43
2019-03-26T05:39:51.350Z,12.10
2019-03-26T05:42:22.021Z,12.40
2019-03-26T05:44:53.062Z,12.17
2019-03-26T05:47:24.123Z,11.80
2019-03-26T05:49:54.780Z,12.50
2019-03-26T05:52:25.787Z,13.07
2019-03-26T05:54:56.560Z,11.10
2019-03-26T05:57:27.601Z,11.67
2019-03-26T05:59:58.296Z,10.83
2019-03-26T06:02:29.310Z,10.90
2019-03-26T06:05:00.341Z,10.70
2019-03-26T06:07:31.477Z,11.60
2019-03-26T06:10:02.341Z,11.37
2019-03-26T06:12:32.998Z,11.93
2019-03-26T06:15:04.453Z,11.57
2019-03-26T06:17:35.160Z,11.03
2019-03-26T06:20:08.803Z,11.50
2019-03-26T06:22:40.447Z,11.60
2019-03-26T06:25:11.382Z,11.60
2019-03-26T06:27:42.076Z,11.20
2019-03-26T06:30:13.257Z,11.37
2019-03-26T06:32:44.187Z,11.47
2019-03-26T06:35:15.199Z,12.00
2019-03-26T06:37:46.151Z,11.50
2019-03-26T06:40:17.344Z,12.60
2019-03-26T06:42:48.021Z,12.63
2019-03-26T06:45:18.990Z,11.60
2019-03-26T06:47:50.100Z,12.40
2019-03-26T06:50:20.884Z,12.67
2019-03-26T06:52:51.589Z,12.83
2019-03-26T06:55:22.531Z,12.20
2019-03-26T06:57:53.181Z,12.33
2019-03-26T07:00:34.723Z,13.00
2019-03-26T07:03:07.964Z,13.03
2019-03-26T07:05:38.648Z,13.53
2019-03-26T07:08:09.594Z,12.93
2019-03-26T07:10:40.766Z,12.60
2019-03-26T07:13:11.424Z,13.60
2019-03-26T07:15:42.418Z,13.27
2019-03-26T07:18:13.111Z,13.00
2019-03-26T07:20:45.653Z,13.30
2019-03-26T07:23:16.658Z,12.90
2019-03-26T07:25:48.314Z,13.83
2019-03-26T07:28:19.009Z,13.93
2019-03-26T07:30:50.418Z,15.80
2019-03-26T07:33:21.383Z,16.33
2019-03-26T07:35:55.177Z,17.73
2019-03-26T07:38:26.867Z,17.43
2019-03-26T07:40:58.547Z,17.40
2019-03-26T07:43:29.228Z,17.97
2019-03-26T07:45:59.885Z,17.90
2019-03-26T07:48:30.834Z,18.10
2019-03-26T07:51:01.775Z,19.00
2019-03-26T07:53:33.418Z,19.17
2019-03-26T07:56:04.288Z,17.60
2019-03-26T07:58:34.969Z,17.20
2019-03-26T08:01:07.562Z,15.13
2019-03-26T08:03:38.415Z,16.57
2019-03-26T08:06:09.170Z,16.40
2019-03-26T08:08:40.776Z,16.57
2019-03-26T08:11:12.823Z,17.07
2019-03-26T08:13:43.797Z,16.87
2019-03-26T08:16:14.773Z,18.03
2019-03-26T08:18:45.818Z,17.17
2019-03-26T08:21:16.473Z,17.83
2019-03-26T08:23:47.407Z,16.53
2019-03-26T08:26:19.080Z,18.23
2019-03-26T08:28:49.744Z,17.57
2019-03-26T08:31:20.703Z,18.90
2019-03-26T08:33:51.781Z,17.80
2019-03-26T08:36:22.933Z,18.77
2019-03-26T08:38:53.865Z,19.83
2019-03-26T08:41:25.011Z,20.53
2019-03-26T08:43:55.709Z,18.90
2019-03-26T08:46:26.974Z,19.83
2019-03-26T08:48:57.632Z,19.57
2019-03-26T08:51:28.508Z,19.37
2019-03-26T08:53:59.190Z,20.60
2019-03-26T08:56:29.933Z,19.67
2019-03-26T08:59:00.864Z,19.33
2019-03-26T09:01:32.514Z,19.87
2019-03-26T09:04:03.293Z,19.93
2019-03-26T09:06:33.937Z,19.17
2019-03-26T09:09:06.937Z,19.17
2019-03-26T09:11:37.842Z,18.90
2019-03-26T09:14:08.621Z,17.53
2019-03-26T09:16:39.554Z,15.93
2019-03-26T09:19:10.323Z,15.87
2019-03-26T09:21:41.493Z,16.27
2019-03-26T09:24:12.195Z,14.60
2019-03-26T09:26:42.902Z,14.63
2019-03-26T09:29:13.566Z,14.03
2019-03-26T09:31:44.242Z,12.03
2019-03-26T09:34:15.208Z,12.10
2019-03-26T09:36:46.142Z,11.23
2019-03-26T09:39:17.106Z,10.07
2019-03-26T09:41:47.787Z,9.20
2019-03-26T09:44:18.507Z,8.63
2019-03-26T09:46:49.277Z,9.93
2019-03-26T09:49:20.238Z,9.93
2019-03-26T09:51:51.299Z,10.13
2019-03-26T09:54:22.032Z,9.33
2019-03-26T09:56:52.666Z,10.10
2019-03-26T09:59:23.634Z,8.73
2019-03-26T10:01:54.622Z,9.00
2019-03-26T10:04:26.249Z,8.73
2019-03-26T10:06:56.920Z,8.40
2019-03-26T10:09:27.818Z,8.80
2019-03-26T10:11:58.790Z,8.67
2019-03-26T10:14:29.861Z,8.47
2019-03-26T10:17:00.587Z,8.77
2019-03-26T10:19:31.284Z,8.13
2019-03-26T10:22:02.333Z,7.77
2019-03-26T10:24:33.308Z,7.70
2019-03-26T10:27:04.005Z,7.37
2019-03-26T10:29:35.011Z,7.33
2019-03-26T10:32:05.736Z,7.33
2019-03-26T10:34:36.810Z,6.27
2019-03-26T10:37:07.761Z,6.70
2019-03-26T10:39:38.424Z,5.93
2019-03-26T10:42:09.356Z,6.20
2019-03-26T10:44:40.043Z,6.70
2019-03-26T10:47:10.722Z,6.67
2019-03-26T10:49:41.392Z,6.03
2019-03-26T10:52:12.334Z,6.07
2019-03-26T10:54:43.007Z,5.30
2019-03-26T10:57:13.665Z,5.70
2019-03-26T10:59:44.347Z,5.57
2019-03-26T11:02:15.277Z,6.37
2019-03-26T11:04:45.997Z,5.83
2019-03-26T11:07:16.674Z,5.27
2019-03-26T11:09:47.361Z,5.07
2019-03-26T11:12:18.126Z,4.13
2019-03-26T11:14:49.066Z,4.53
2019-03-26T11:17:21.764Z,4.10
2019-03-26T11:19:52.684Z,3.53
2019-03-26T11:22:23.383Z,3.20
2019-03-26T11:24:54.319Z,3.27
2019-03-26T11:27:25.431Z,3.90
2019-03-26T11:29:56.470Z,3.27
2019-03-26T11:32:27.113Z,3.30
2019-03-26T11:34:58.143Z,3.50
2019-03-26T11:37:30.094Z,3.57
2019-03-26T11:40:01.042Z,3.83
2019-03-26T11:42:32.994Z,3.60
2019-03-26T11:45:04.879Z,3.57
2019-03-26T11:47:35.825Z,3.17
2019-03-26T11:50:07.729Z,3.27
2019-03-26T11:52:39.358Z,3.23
2019-03-26T11:55:11.759Z,2.50
2019-03-26T11:57:42.708Z,3.00
2019-03-26T12:00:16.577Z,2.33
2019-03-26T12:02:47.265Z,2.53
2019-03-26T12:05:17.906Z,2.90
2019-03-26T12:07:49.051Z,3.13
2019-03-26T12:10:19.724Z,3.00
2019-03-26T12:12:50.391Z,3.33
2019-03-26T12:15:21.051Z,3.47
2019-03-26T12:17:51.980Z,3.50
2019-03-26T12:20:22.924Z,3.80
2019-03-26T12:22:53.575Z,4.07
2019-03-26T12:25:24.270Z,5.30
2019-03-26T12:27:54.948Z,5.90
2019-03-26T12:30:34.462Z,6.67
2019-03-26T12:33:06.471Z,7.20
2019-03-26T12:35:37.712Z,6.47
2019-03-26T12:38:18.395Z,7.10
2019-03-26T12:40:49.871Z,7.47
2019-03-26T12:43:20.763Z,6.93
2019-03-26T12:45:51.648Z,7.20
2019-03-26T12:48:22.326Z,6.07
2019-03-26T12:50:53.222Z,5.70
2019-03-26T12:53:24.892Z,6.70
2019-03-26T12:55:56.068Z,5.00
2019-03-26T12:58:32.062Z,5.30
2019-03-26T13:00:59.380Z,5.40
2019-03-26T13:03:30.389Z,4.93
2019-03-26T13:06:01.329Z,3.80
2019-03-26T13:08:32.032Z,4.40
2019-03-26T13:11:03.105Z,4.23
2019-03-26T13:13:33.864Z,4.43
2019-03-26T13:16:07.014Z,4.07
2019-03-26T13:18:37.870Z,3.90
2019-03-26T13:21:08.537Z,5.00
2019-03-26T13:23:39.235Z,3.90
2019-03-26T13:26:10.281Z,3.73
2019-03-26T13:28:41.681Z,4.37
2019-03-26T13:31:13.795Z,3.93
2019-03-26T13:33:46.068Z,4.20
2019-03-26T13:36:16.729Z,4.00
2019-03-26T13:38:48.295Z,3.90
2019-03-26T13:41:19.032Z,3.97
2019-03-26T13:43:50.120Z,3.90
2019-03-26T13:46:20.956Z,3.63
2019-03-26T13:48:51.655Z,3.20
2019-03-26T13:51:22.969Z,3.77
2019-03-26T13:53:53.865Z,3.73
2019-03-26T13:56:24.636Z,3.40
2019-03-26T13:58:55.283Z,3.80
2019-03-26T14:01:26.472Z,3.07
2019-03-26T14:03:57.120Z,3.07
2019-03-26T14:06:27.920Z,3.00
2019-03-26T14:08:58.716Z,3.20
2019-03-26T14:11:29.959Z,3.07
2019-03-26T14:14:00.557Z,3.40
2019-03-26T14:16:31.616Z,3.47
2019-03-26T14:19:02.287Z,4.00
2019-03-26T14:21:32.988Z,3.70
2019-03-26T14:24:04.001Z,4.20
2019-03-26T14:26:34.940Z,3.47
2019-03-26T14:29:05.631Z,3.43
2019-03-26T14:31:36.326Z,3.60
2019-03-26T14:34:07.254Z,3.57
2019-03-26T14:36:38.305Z,3.40
2019-03-26T14:39:10.825Z,3.40
2019-03-26T14:41:42.027Z,3.47
2019-03-26T14:44:13.076Z,3.77
2019-03-26T14:46:44.089Z,3.20
2019-03-26T14:49:15.130Z,2.90
2019-03-26T14:51:46.064Z,3.07
2019-03-26T14:54:16.766Z,2.87
2019-03-26T14:56:47.739Z,3.20
2019-03-26T14:59:18.771Z,3.23
2019-03-26T15:01:49.812Z,3.30
2019-03-26T15:04:20.593Z,3.10
2019-03-26T15:06:51.507Z,3.40
2019-03-26T15:09:22.194Z,3.30
2019-03-26T15:11:53.147Z,3.40
2019-03-26T15:14:24.236Z,3.50
2019-03-26T15:16:54.938Z,3.20
2019-03-26T15:19:25.715Z,3.30
2019-03-26T15:21:56.417Z,3.17
2019-03-26T15:24:27.152Z,3.40
2019-03-26T15:26:57.881Z,2.67
2019-03-26T15:29:28.658Z,3.20
2019-03-26T15:31:59.669Z,3.23
2019-03-26T15:34:36.104Z,3.10
2019-03-26T15:37:03.179Z,2.90
2019-03-26T15:39:34.213Z,3.43
2019-03-26T15:42:04.975Z,3.30
2019-03-26T15:44:35.985Z,3.30
2019-03-26T15:47:06.667Z,2.90
2019-03-26T15:49:37.398Z,3.30
2019-03-26T15:52:08.387Z,3.57
2019-03-26T15:54:39.492Z,2.90
2019-03-26T15:57:10.275Z,3.30
2019-03-26T15:59:40.968Z,3.30
2019-03-26T16:02:11.636Z,3.20
2019-03-26T16:04:42.605Z,3.20
2019-03-26T16:07:13.327Z,3.10
2019-03-26T16:09:44.471Z,3.63
2019-03-26T16:12:15.507Z,3.60
2019-03-26T16:14:46.528Z,3.37
2019-03-26T16:17:17.602Z,3.80
2019-03-26T16:19:48.303Z,3.27
2019-03-26T16:22:18.958Z,3.57
2019-03-26T16:24:53.154Z,3.40
2019-03-26T16:27:22.502Z,3.30
2019-03-26T16:29:53.185Z,3.53
2019-03-26T16:32:23.836Z,3.73
2019-03-26T16:34:54.971Z,3.30
2019-03-26T16:37:25.655Z,3.47
2019-03-26T16:39:56.311Z,3.10
2019-03-26T16:42:26.992Z,3.23
2019-03-26T16:44:58.020Z,3.10
2019-03-26T16:47:29.074Z,3.33
2019-03-26T16:50:00.149Z,3.10
2019-03-26T16:52:31.331Z,3.10
2019-03-26T16:55:02.363Z,3.30
2019-03-26T16:57:33.034Z,3.30
2019-03-26T17:00:04.857Z,3.30
2019-03-26T17:02:35.861Z,4.00
2019-03-26T17:05:07.716Z,3.20
2019-03-26T17:07:38.460Z,3.70
2019-03-26T17:10:09.826Z,3.67
2019-03-26T17:12:40.890Z,3.27
2019-03-26T17:15:12.040Z,2.93
2019-03-26T17:17:43.304Z,3.53
2019-03-26T17:20:14.537Z,3.40
2019-03-26T17:22:45.590Z,3.40
2019-03-26T17:25:16.315Z,4.33
2019-03-26T17:27:47.395Z,4.80
2019-03-26T17:30:18.135Z,5.53
2019-03-26T17:32:49.989Z,5.17
2019-03-26T17:35:21.708Z,5.30
2019-03-26T17:37:59.679Z,6.10
2019-03-26T17:40:25.666Z,5.33
2019-03-26T17:42:56.428Z,5.93
2019-03-26T17:45:27.400Z,6.60
2019-03-26T17:47:58.947Z,5.67
2019-03-26T17:50:29.667Z,5.83
2019-03-26T17:53:00.354Z,6.20
2019-03-26T17:55:31.276Z,6.60
2019-03-26T17:58:02.283Z,5.97
2019-03-26T18:00:45.016Z,6.67
2019-03-26T18:03:26.398Z,6.87
2019-03-26T18:05:48.517Z,5.83
2019-03-26T18:08:19.220Z,6.20
2019-03-26T18:10:49.881Z,6.13
2019-03-26T18:13:20.812Z,5.97
2019-03-26T18:15:51.846Z,6.37
2019-03-26T18:18:23.718Z,6.30
2019-03-26T18:20:54.855Z,6.50
2019-03-26T18:23:25.814Z,5.67
2019-03-26T18:25:56.952Z,6.30
2019-03-26T18:28:27.703Z,5.97
2019-03-26T18:30:58.800Z,6.30
2019-03-26T18:33:29.904Z,6.77
2019-03-26T18:36:00.580Z,6.73
2019-03-26T18:38:31.541Z,6.93
2019-03-26T18:41:02.291Z,6.97
2019-03-26T18:43:33.343Z,7.37
2019-03-26T18:46:04.455Z,7.60
2019-03-26T18:48:35.644Z,8.10
2019-03-26T18:51:06.754Z,6.67
2019-03-26T18:53:37.797Z,6.97
2019-03-26T18:56:08.908Z,7.03
2019-03-26T18:58:39.864Z,7.33
2019-03-26T19:01:10.842Z,7.10
2019-03-26T19:03:41.985Z,7.07
2019-03-26T19:06:12.661Z,7.17
2019-03-26T19:08:43.629Z,7.17
2019-03-26T19:11:14.738Z,7.17
2019-03-26T19:13:45.842Z,7.20
2019-03-26T19:16:18.499Z,6.97
2019-03-26T19:18:49.499Z,7.47
2019-03-26T19:21:20.159Z,7.57
2019-03-26T19:24:03.266Z,7.47
2019-03-26T19:26:24.606Z,7.77
2019-03-26T19:29:02.474Z,7.70
2019-03-26T19:31:35.843Z,7.57
2019-03-26T19:34:08.560Z,7.80
2019-03-26T19:36:39.265Z,7.93
2019-03-26T19:39:10.088Z,8.50
2019-03-26T19:41:42.129Z,8.43
2019-03-26T19:44:13.273Z,8.77
2019-03-26T19:46:45.497Z,8.37
2019-03-26T19:49:17.187Z,8.80
2019-03-26T19:51:51.687Z,8.23
2019-03-26T19:54:34.198Z,9.27
2019-03-26T19:57:14.523Z,8.63
2019-03-26T19:59:52.122Z,8.80
2019-03-26T20:02:22.964Z,8.40
2019-03-26T20:04:54.981Z,9.40
2019-03-26T20:07:25.684Z,8.30
2019-03-26T20:09:56.513Z,8.37
2019-03-26T20:12:30.814Z,8.23
2019-03-26T20:15:02.034Z,8.57
2019-03-26T20:17:33.102Z,8.13
2019-03-26T20:20:08.439Z,7.90
2019-03-26T20:22:39.231Z,8.07
2019-03-26T20:25:10.930Z,8.30
2019-03-26T20:27:41.710Z,7.93
2019-03-26T20:30:14.268Z,7.87
2019-03-26T20:32:45.198Z,7.90
2019-03-26T20:35:17.763Z,8.07
2019-03-26T20:37:48.851Z,8.70
2019-03-26T20:40:19.774Z,8.37
2019-03-26T20:42:54.647Z,8.50
2019-03-26T20:45:25.482Z,8.73
2019-03-26T20:47:56.617Z,9.27
2019-03-26T20:50:27.527Z,8.80
2019-03-26T20:52:58.290Z,9.17
2019-03-26T20:55:34.490Z,8.93
2019-03-26T20:58:06.072Z,8.90
2019-03-26T21:00:40.064Z,9.00
2019-03-26T21:03:10.869Z,9.20
2019-03-26T21:05:43.009Z,9.37
2019-03-26T21:08:14.065Z,9.50
2019-03-26T21:10:44.925Z,9.13
2019-03-26T21:13:16.024Z,9.33
2019-03-26T21:15:56.576Z,8.47
2019-03-26T21:18:21.266Z,8.97
2019-03-26T21:20:52.424Z,8.87
2019-03-26T21:23:23.263Z,8.83
2019-03-26T21:25:54.498Z,9.00
2019-03-26T21:28:25.210Z,8.50
2019-03-26T21:30:56.278Z,7.87
2019-03-26T21:33:27.728Z,8.60
2019-03-26T21:35:58.402Z,7.93
2019-03-26T21:38:29.291Z,7.83
2019-03-26T21:41:01.756Z,8.23
2019-03-26T21:43:33.473Z,7.57
2019-03-26T21:46:04.722Z,7.57
2019-03-26T21:48:35.673Z,7.47
2019-03-26T21:51:06.670Z,7.90
2019-03-26T21:53:37.689Z,7.97
2019-03-26T21:56:08.658Z,7.00
2019-03-26T21:58:39.407Z,6.90
2019-03-26T22:01:10.413Z,7.90
2019-03-26T22:03:41.166Z,7.30
2019-03-26T22:06:12.178Z,7.30
2019-03-26T22:08:43.130Z,7.40
2019-03-26T22:11:14.077Z,7.13
2019-03-26T22:13:45.116Z,7.20
2019-03-26T22:16:16.136Z,6.57
2019-03-26T22:18:47.075Z,7.40
2019-03-26T22:21:18.021Z,7.20
2019-03-26T22:23:48.823Z,7.30
2019-03-26T22:26:19.765Z,7.73
2019-03-26T22:28:50.433Z,7.80
2019-03-26T22:31:21.099Z,7.80
2019-03-26T22:33:51.759Z,7.57
2019-03-26T22:36:22.703Z,8.00
2019-03-26T22:38:53.677Z,7.57
2019-03-26T22:41:24.348Z,8.07
2019-03-26T22:43:55.379Z,8.10
2019-03-26T22:46:26.372Z,7.73
2019-03-26T22:48:57.080Z,7.80
2019-03-26T22:51:28.751Z,8.00
2019-03-26T22:53:59.411Z,7.97
2019-03-26T22:56:30.335Z,7.33
2019-03-26T22:59:00.992Z,7.30
2019-03-26T23:01:32.125Z,8.33
2019-03-26T23:04:03.150Z,7.97
2019-03-26T23:06:34.208Z,7.80
2019-03-26T23:09:06.110Z,7.60
2019-03-26T23:11:38.835Z,7.27
2019-03-26T23:14:09.526Z,7.30
2019-03-26T23:16:40.532Z,7.23
2019-03-26T23:19:11.453Z,7.17
2019-03-26T23:21:42.111Z,6.93
2019-03-26T23:24:12.776Z,7.70
2019-03-26T23:26:43.458Z,7.03
2019-03-26T23:29:14.127Z,6.93
2019-03-26T23:31:45.105Z,6.90
2019-03-26T23:34:16.493Z,6.23
2019-03-26T23:36:47.417Z,6.30
2019-03-26T23:39:18.432Z,6.10
2019-03-26T23:41:49.097Z,5.47
2019-03-26T23:44:25.602Z,5.90
2019-03-26T23:46:52.501Z,5.07
2019-03-26T23:49:23.170Z,4.63
2019-03-26T23:51:53.834Z,4.17
2019-03-26T23:54:24.773Z,4.00
2019-03-26T23:56:55.441Z,3.90
2019-03-26T23:59:26.101Z,3.40
